sensor_id;sensor_type;location;lat;lon;timestamp;temperature;humidity
16505;HTU21D;8365;51.030;4.696;2023-05-10T00:02:03;14.27;118.99
16505;HTU21D;8365;51.030;4.696;2023-05-10T00:04:34;14.34;118.99
16505;HTU21D;8365;51.030;4.696;2023-05-10T00:07:05;14.23;118.99
16505;HTU21D;8365;51.030;4.696;2023-05-10T00:09:35;14.22;118.99
16505;HTU21D;8365;51.030;4.696;2023-05-10T00:12:06;14.03;118.99
16505;HTU21D;8365;51.030;4.696;2023-05-10T00:14:36;14.05;118.99
16505;HTU21D;8365;51.030;4.696;2023-05-10T00:17:07;14.20;118.99
16505;HTU21D;8365;51.030;4.696;2023-05-10T00:19:37;14.22;118.99
16505;HTU21D;8365;51.030;4.696;2023-05-10T00:22:08;14.35;118.99
16505;HTU21D;8365;51.030;4.696;2023-05-10T00:24:38;14.14;118.99
16505;HTU21D;8365;51.030;4.696;2023-05-10T00:27:09;14.11;118.99
16505;HTU21D;8365;51.030;4.696;2023-05-10T00:29:41;14.11;118.99
16505;HTU21D;8365;51.030;4.696;2023-05-10T00:32:12;14.13;118.99
16505;HTU21D;8365;51.030;4.696;2023-05-10T00:34:44;14.25;118.99
16505;HTU21D;8365;51.030;4.696;2023-05-10T00:37:14;14.36;118.99
16505;HTU21D;8365;51.030;4.696;2023-05-10T00:39:47;14.30;118.99
16505;HTU21D;8365;51.030;4.696;2023-05-10T00:42:17;14.19;118.99
16505;HTU21D;8365;51.030;4.696;2023-05-10T00:44:47;14.17;118.99
16505;HTU21D;8365;51.030;4.696;2023-05-10T00:47:18;14.08;118.99
16505;HTU21D;8365;51.030;4.696;2023-05-10T00:49:49;14.18;118.99
16505;HTU21D;8365;51.030;4.696;2023-05-10T00:52:20;14.22;118.99
16505;HTU21D;8365;51.030;4.696;2023-05-10T00:54:52;14.19;118.99
16505;HTU21D;8365;51.030;4.696;2023-05-10T00:57:25;14.21;118.99
16505;HTU21D;8365;51.030;4.696;2023-05-10T00:59:55;14.29;118.99
16505;HTU21D;8365;51.030;4.696;2023-05-10T01:02:27;14.35;118.99
16505;HTU21D;8365;51.030;4.696;2023-05-10T01:04:58;14.38;118.99
16505;HTU21D;8365;51.030;4.696;2023-05-10T01:07:29;14.43;118.99
16505;HTU21D;8365;51.030;4.696;2023-05-10T01:09:59;14.56;118.99
16505;HTU21D;8365;51.030;4.696;2023-05-10T01:12:30;14.44;118.99
16505;HTU21D;8365;51.030;4.696;2023-05-10T01:15:01;14.23;118.99
16505;HTU21D;8365;51.030;4.696;2023-05-10T01:17:32;14.35;118.99
16505;HTU21D;8365;51.030;4.696;2023-05-10T01:20:03;14.38;118.99
16505;HTU21D;8365;51.030;4.696;2023-05-10T01:28:47;14.20;118.99
16505;HTU21D;8365;51.030;4.696;2023-05-10T01:34:35;14.18;118.99
16505;HTU21D;8365;51.030;4.696;2023-05-10T01:37:29;14.20;118.99
16505;HTU21D;8365;51.030;4.696;2023-05-10T01:42:42;14.22;118.99
16505;HTU21D;8365;51.030;4.696;2023-05-10T01:45:39;14.22;118.99
16505;HTU21D;8365;51.030;4.696;2023-05-10T01:48:14;14.20;118.99
16505;HTU21D;8365;51.030;4.696;2023-05-10T01:50:46;14.34;118.99
16505;HTU21D;8365;51.030;4.696;2023-05-10T01:53:19;14.27;118.99
16505;HTU21D;8365;51.030;4.696;2023-05-10T01:55:55;14.32;118.99
16505;HTU21D;8365;51.030;4.696;2023-05-10T01:58:29;14.32;118.99
16505;HTU21D;8365;51.030;4.696;2023-05-10T02:01:03;14.29;118.99
16505;HTU21D;8365;51.030;4.696;2023-05-10T02:03:35;14.17;118.99
16505;HTU21D;8365;51.030;4.696;2023-05-10T02:06:07;14.24;118.99
16505;HTU21D;8365;51.030;4.696;2023-05-10T02:08:41;14.09;118.99
16505;HTU21D;8365;51.030;4.696;2023-05-10T02:11:19;14.08;118.99
16505;HTU21D;8365;51.030;4.696;2023-05-10T02:13:51;13.93;118.99
16505;HTU21D;8365;51.030;4.696;2023-05-10T02:16:27;13.96;118.99
16505;HTU21D;8365;51.030;4.696;2023-05-10T02:18:59;13.80;118.99
16505;HTU21D;8365;51.030;4.696;2023-05-10T02:21:31;13.96;118.99
16505;HTU21D;8365;51.030;4.696;2023-05-10T02:24:04;13.86;118.99
16505;HTU21D;8365;51.030;4.696;2023-05-10T02:26:38;13.93;118.99
16505;HTU21D;8365;51.030;4.696;2023-05-10T02:29:09;13.97;118.99
16505;HTU21D;8365;51.030;4.696;2023-05-10T02:31:40;13.96;118.99
16505;HTU21D;8365;51.030;4.696;2023-05-10T02:34:13;13.86;118.99
16505;HTU21D;8365;51.030;4.696;2023-05-10T02:36:47;13.76;118.99
16505;HTU21D;8365;51.030;4.696;2023-05-10T02:39:22;13.84;118.99
16505;HTU21D;8365;51.030;4.696;2023-05-10T02:41:53;13.86;118.99
16505;HTU21D;8365;51.030;4.696;2023-05-10T02:44:26;13.75;118.99
16505;HTU21D;8365;51.030;4.696;2023-05-10T02:46:58;13.62;118.99
16505;HTU21D;8365;51.030;4.696;2023-05-10T02:49:28;13.65;118.99
16505;HTU21D;8365;51.030;4.696;2023-05-10T02:52:00;13.68;118.99
16505;HTU21D;8365;51.030;4.696;2023-05-10T02:54:41;13.74;118.99
16505;HTU21D;8365;51.030;4.696;2023-05-10T02:57:16;13.60;118.99
16505;HTU21D;8365;51.030;4.696;2023-05-10T02:59:50;13.66;118.99
16505;HTU21D;8365;51.030;4.696;2023-05-10T03:02:21;13.60;118.99
16505;HTU21D;8365;51.030;4.696;2023-05-10T03:04:54;13.48;118.99
16505;HTU21D;8365;51.030;4.696;2023-05-10T03:07:25;13.40;118.99
16505;HTU21D;8365;51.030;4.696;2023-05-10T03:09:55;13.47;118.99
16505;HTU21D;8365;51.030;4.696;2023-05-10T03:19:02;13.52;118.99
16505;HTU21D;8365;51.030;4.696;2023-05-10T03:21:38;13.63;118.99
16505;HTU21D;8365;51.030;4.696;2023-05-10T03:24:12;13.71;118.99
16505;HTU21D;8365;51.030;4.696;2023-05-10T03:26:45;13.78;118.99
16505;HTU21D;8365;51.030;4.696;2023-05-10T03:29:17;13.79;118.99
16505;HTU21D;8365;51.030;4.696;2023-05-10T03:31:47;13.92;118.99
16505;HTU21D;8365;51.030;4.696;2023-05-10T03:34:23;13.96;118.99
16505;HTU21D;8365;51.030;4.696;2023-05-10T03:36:54;13.80;118.99
16505;HTU21D;8365;51.030;4.696;2023-05-10T03:39:26;13.74;118.99
16505;HTU21D;8365;51.030;4.696;2023-05-10T03:41:58;13.73;118.99
16505;HTU21D;8365;51.030;4.696;2023-05-10T03:44:29;13.63;118.99
16505;HTU21D;8365;51.030;4.696;2023-05-10T03:46:59;13.66;118.99
16505;HTU21D;8365;51.030;4.696;2023-05-10T03:49:30;13.65;118.99
16505;HTU21D;8365;51.030;4.696;2023-05-10T03:52:03;13.63;118.99
16505;HTU21D;8365;51.030;4.696;2023-05-10T03:54:33;13.50;118.99
16505;HTU21D;8365;51.030;4.696;2023-05-10T03:57:06;13.38;118.99
16505;HTU21D;8365;51.030;4.696;2023-05-10T03:59:39;13.51;118.99
16505;HTU21D;8365;51.030;4.696;2023-05-10T04:02:09;13.56;118.99
16505;HTU21D;8365;51.030;4.696;2023-05-10T04:04:40;13.58;118.99
16505;HTU21D;8365;51.030;4.696;2023-05-10T04:07:10;13.49;118.99
16505;HTU21D;8365;51.030;4.696;2023-05-10T04:09:41;13.64;118.99
16505;HTU21D;8365;51.030;4.696;2023-05-10T04:12:11;13.81;118.99
16505;HTU21D;8365;51.030;4.696;2023-05-10T04:14:42;13.79;118.99
16505;HTU21D;8365;51.030;4.696;2023-05-10T04:17:12;14.04;118.99
16505;HTU21D;8365;51.030;4.696;2023-05-10T04:19:43;13.99;118.99
16505;HTU21D;8365;51.030;4.696;2023-05-10T04:22:13;14.00;118.99
16505;HTU21D;8365;51.030;4.696;2023-05-10T04:24:44;14.08;118.99
16505;HTU21D;8365;51.030;4.696;2023-05-10T04:27:14;14.04;118.99
16505;HTU21D;8365;51.030;4.696;2023-05-10T04:29:44;13.95;118.99
16505;HTU21D;8365;51.030;4.696;2023-05-10T04:32:15;14.12;118.99
16505;HTU21D;8365;51.030;4.696;2023-05-10T04:34:47;13.90;118.99
16505;HTU21D;8365;51.030;4.696;2023-05-10T04:37:17;14.04;118.99
16505;HTU21D;8365;51.030;4.696;2023-05-10T04:39:48;14.18;118.99
16505;HTU21D;8365;51.030;4.696;2023-05-10T04:42:18;14.26;118.99
16505;HTU21D;8365;51.030;4.696;2023-05-10T04:44:49;14.20;118.99
16505;HTU21D;8365;51.030;4.696;2023-05-10T04:47:19;13.86;118.99
16505;HTU21D;8365;51.030;4.696;2023-05-10T04:49:50;13.80;118.99
16505;HTU21D;8365;51.030;4.696;2023-05-10T04:52:20;13.98;118.99
16505;HTU21D;8365;51.030;4.696;2023-05-10T04:54:51;13.91;118.99
16505;HTU21D;8365;51.030;4.696;2023-05-10T04:57:24;13.96;118.99
16505;HTU21D;8365;51.030;4.696;2023-05-10T04:59:54;14.09;118.99
16505;HTU21D;8365;51.030;4.696;2023-05-10T05:02:25;14.27;118.99
16505;HTU21D;8365;51.030;4.696;2023-05-10T05:04:56;14.11;118.99
16505;HTU21D;8365;51.030;4.696;2023-05-10T05:07:28;13.86;118.99
16505;HTU21D;8365;51.030;4.696;2023-05-10T05:09:58;13.91;118.99
16505;HTU21D;8365;51.030;4.696;2023-05-10T05:12:28;14.05;118.99
16505;HTU21D;8365;51.030;4.696;2023-05-10T05:14:59;13.81;118.99
16505;HTU21D;8365;51.030;4.696;2023-05-10T05:17:30;13.81;118.99
16505;HTU21D;8365;51.030;4.696;2023-05-10T05:20:00;13.98;118.99
16505;HTU21D;8365;51.030;4.696;2023-05-10T05:22:31;13.90;118.99
16505;HTU21D;8365;51.030;4.696;2023-05-10T05:25:01;13.85;118.99
16505;HTU21D;8365;51.030;4.696;2023-05-10T05:27:33;13.78;118.99
16505;HTU21D;8365;51.030;4.696;2023-05-10T05:30:04;13.74;118.99
16505;HTU21D;8365;51.030;4.696;2023-05-10T05:32:35;13.94;118.99
16505;HTU21D;8365;51.030;4.696;2023-05-10T05:35:08;13.98;118.99
16505;HTU21D;8365;51.030;4.696;2023-05-10T05:37:47;14.15;118.99
16505;HTU21D;8365;51.030;4.696;2023-05-10T05:40:20;14.34;118.99
16505;HTU21D;8365;51.030;4.696;2023-05-10T05:42:51;14.44;118.99
16505;HTU21D;8365;51.030;4.696;2023-05-10T05:45:21;14.47;118.99
16505;HTU21D;8365;51.030;4.696;2023-05-10T05:47:54;14.33;118.99
16505;HTU21D;8365;51.030;4.696;2023-05-10T05:50:24;14.10;118.99
16505;HTU21D;8365;51.030;4.696;2023-05-10T05:52:55;14.08;118.99
16505;HTU21D;8365;51.030;4.696;2023-05-10T05:55:26;14.12;118.99
16505;HTU21D;8365;51.030;4.696;2023-05-10T05:57:58;14.12;118.99
16505;HTU21D;8365;51.030;4.696;2023-05-10T06:00:28;14.27;118.99
16505;HTU21D;8365;51.030;4.696;2023-05-10T06:02:59;14.30;118.99
16505;HTU21D;8365;51.030;4.696;2023-05-10T06:05:29;14.48;118.99
16505;HTU21D;8365;51.030;4.696;2023-05-10T06:08:00;14.24;118.99
16505;HTU21D;8365;51.030;4.696;2023-05-10T06:10:31;14.34;118.99
16505;HTU21D;8365;51.030;4.696;2023-05-10T06:13:02;14.51;118.99
16505;HTU21D;8365;51.030;4.696;2023-05-10T06:15:32;14.25;118.99
16505;HTU21D;8365;51.030;4.696;2023-05-10T06:18:06;14.26;118.99
16505;HTU21D;8365;51.030;4.696;2023-05-10T06:20:36;14.22;118.99
16505;HTU21D;8365;51.030;4.696;2023-05-10T06:23:09;14.43;118.99
16505;HTU21D;8365;51.030;4.696;2023-05-10T06:25:40;14.48;118.99
16505;HTU21D;8365;51.030;4.696;2023-05-10T06:28:10;14.52;118.99
16505;HTU21D;8365;51.030;4.696;2023-05-10T06:30:40;14.52;118.99
16505;HTU21D;8365;51.030;4.696;2023-05-10T06:33:11;14.39;118.99
16505;HTU21D;8365;51.030;4.696;2023-05-10T06:35:41;14.45;118.99
16505;HTU21D;8365;51.030;4.696;2023-05-10T06:38:14;14.51;118.99
16505;HTU21D;8365;51.030;4.696;2023-05-10T06:40:45;14.56;118.99
16505;HTU21D;8365;51.030;4.696;2023-05-10T06:43:15;14.63;118.99
16505;HTU21D;8365;51.030;4.696;2023-05-10T06:45:48;14.37;118.99
16505;HTU21D;8365;51.030;4.696;2023-05-10T06:48:22;14.43;118.99
16505;HTU21D;8365;51.030;4.696;2023-05-10T06:50:54;14.48;118.99
16505;HTU21D;8365;51.030;4.696;2023-05-10T06:53:25;14.24;118.99
16505;HTU21D;8365;51.030;4.696;2023-05-10T06:55:57;14.25;118.99
16505;HTU21D;8365;51.030;4.696;2023-05-10T06:58:30;14.28;118.99
16505;HTU21D;8365;51.030;4.696;2023-05-10T07:01:03;14.44;118.99
16505;HTU21D;8365;51.030;4.696;2023-05-10T07:03:34;14.38;118.99
16505;HTU21D;8365;51.030;4.696;2023-05-10T07:06:05;14.33;118.99
16505;HTU21D;8365;51.030;4.696;2023-05-10T07:08:37;14.21;118.99
16505;HTU21D;8365;51.030;4.696;2023-05-10T07:11:07;14.28;118.99
16505;HTU21D;8365;51.030;4.696;2023-05-10T07:13:40;14.44;118.99
16505;HTU21D;8365;51.030;4.696;2023-05-10T07:16:14;14.45;118.99
16505;HTU21D;8365;51.030;4.696;2023-05-10T07:18:44;14.47;118.99
16505;HTU21D;8365;51.030;4.696;2023-05-10T07:21:15;14.60;118.99
16505;HTU21D;8365;51.030;4.696;2023-05-10T07:23:45;14.62;118.99
16505;HTU21D;8365;51.030;4.696;2023-05-10T07:26:16;14.85;118.99
16505;HTU21D;8365;51.030;4.696;2023-05-10T07:28:47;14.94;118.99
16505;HTU21D;8365;51.030;4.696;2023-05-10T07:31:20;14.74;118.99
16505;HTU21D;8365;51.030;4.696;2023-05-10T07:33:50;14.75;118.99
16505;HTU21D;8365;51.030;4.696;2023-05-10T07:36:21;15.10;118.99
16505;HTU21D;8365;51.030;4.696;2023-05-10T07:38:52;15.11;118.99
16505;HTU21D;8365;51.030;4.696;2023-05-10T07:41:23;15.26;118.99
16505;HTU21D;8365;51.030;4.696;2023-05-10T07:43:53;15.16;118.99
16505;HTU21D;8365;51.030;4.696;2023-05-10T07:46:24;15.18;118.99
16505;HTU21D;8365;51.030;4.696;2023-05-10T07:48:54;15.12;118.99
16505;HTU21D;8365;51.030;4.696;2023-05-10T07:51:24;15.13;118.99
16505;HTU21D;8365;51.030;4.696;2023-05-10T07:53:58;14.95;118.99
16505;HTU21D;8365;51.030;4.696;2023-05-10T07:56:30;14.77;118.99
16505;HTU21D;8365;51.030;4.696;2023-05-10T07:59:03;14.59;118.99
16505;HTU21D;8365;51.030;4.696;2023-05-10T08:01:35;14.66;118.99
16505;HTU21D;8365;51.030;4.696;2023-05-10T08:04:05;14.81;118.99
16505;HTU21D;8365;51.030;4.696;2023-05-10T08:06:39;14.75;118.99
16505;HTU21D;8365;51.030;4.696;2023-05-10T08:09:10;14.69;118.99
16505;HTU21D;8365;51.030;4.696;2023-05-10T08:11:41;14.67;118.99
16505;HTU21D;8365;51.030;4.696;2023-05-10T08:14:11;14.63;118.99
16505;HTU21D;8365;51.030;4.696;2023-05-10T08:16:41;14.87;118.99
16505;HTU21D;8365;51.030;4.696;2023-05-10T08:19:12;15.03;118.99
16505;HTU21D;8365;51.030;4.696;2023-05-10T08:21:43;15.19;118.99
16505;HTU21D;8365;51.030;4.696;2023-05-10T08:24:16;15.21;118.99
16505;HTU21D;8365;51.030;4.696;2023-05-10T08:26:46;15.03;118.99
16505;HTU21D;8365;51.030;4.696;2023-05-10T08:29:17;15.14;118.99
16505;HTU21D;8365;51.030;4.696;2023-05-10T08:31:48;15.08;118.99
16505;HTU21D;8365;51.030;4.696;2023-05-10T08:34:18;15.02;118.99
16505;HTU21D;8365;51.030;4.696;2023-05-10T08:36:49;15.19;118.99
16505;HTU21D;8365;51.030;4.696;2023-05-10T08:39:19;15.22;118.99
16505;HTU21D;8365;51.030;4.696;2023-05-10T08:41:51;15.18;118.99
16505;HTU21D;8365;51.030;4.696;2023-05-10T08:44:24;15.41;118.99
16505;HTU21D;8365;51.030;4.696;2023-05-10T08:46:55;15.42;118.99
16505;HTU21D;8365;51.030;4.696;2023-05-10T08:49:27;15.22;118.99
16505;HTU21D;8365;51.030;4.696;2023-05-10T08:52:05;15.42;118.99
16505;HTU21D;8365;51.030;4.696;2023-05-10T08:54:37;15.51;118.99
16505;HTU21D;8365;51.030;4.696;2023-05-10T08:57:08;15.56;118.99
16505;HTU21D;8365;51.030;4.696;2023-05-10T08:59:38;15.90;118.99
16505;HTU21D;8365;51.030;4.696;2023-05-10T09:02:11;15.93;118.99
16505;HTU21D;8365;51.030;4.696;2023-05-10T09:04:43;16.01;118.99
16505;HTU21D;8365;51.030;4.696;2023-05-10T09:07:14;15.65;118.99
16505;HTU21D;8365;51.030;4.696;2023-05-10T09:09:45;15.87;118.99
16505;HTU21D;8365;51.030;4.696;2023-05-10T09:12:16;15.62;118.99
16505;HTU21D;8365;51.030;4.696;2023-05-10T09:14:50;15.48;118.99
16505;HTU21D;8365;51.030;4.696;2023-05-10T09:17:23;15.46;118.99
16505;HTU21D;8365;51.030;4.696;2023-05-10T09:20:00;15.22;118.99
16505;HTU21D;8365;51.030;4.696;2023-05-10T09:22:31;15.01;118.99
16505;HTU21D;8365;51.030;4.696;2023-05-10T09:25:11;15.21;118.99
16505;HTU21D;8365;51.030;4.696;2023-05-10T09:27:47;15.09;118.99
16505;HTU21D;8365;51.030;4.696;2023-05-10T09:30:28;15.22;118.99
16505;HTU21D;8365;51.030;4.696;2023-05-10T09:33:00;15.11;118.99
16505;HTU21D;8365;51.030;4.696;2023-05-10T09:35:32;15.01;118.99
16505;HTU21D;8365;51.030;4.696;2023-05-10T09:38:04;15.06;118.99
16505;HTU21D;8365;51.030;4.696;2023-05-10T09:40:35;14.92;118.99
16505;HTU21D;8365;51.030;4.696;2023-05-10T09:43:07;15.04;118.99
16505;HTU21D;8365;51.030;4.696;2023-05-10T09:45:37;15.15;118.99
16505;HTU21D;8365;51.030;4.696;2023-05-10T09:48:08;15.29;118.99
16505;HTU21D;8365;51.030;4.696;2023-05-10T09:50:38;15.19;118.99
16505;HTU21D;8365;51.030;4.696;2023-05-10T09:53:09;15.23;118.99
16505;HTU21D;8365;51.030;4.696;2023-05-10T09:55:40;15.06;118.99
16505;HTU21D;8365;51.030;4.696;2023-05-10T09:58:12;14.99;118.99
16505;HTU21D;8365;51.030;4.696;2023-05-10T10:00:44;14.98;118.99
16505;HTU21D;8365;51.030;4.696;2023-05-10T10:03:18;14.79;118.99
16505;HTU21D;8365;51.030;4.696;2023-05-10T10:05:48;14.94;118.99
16505;HTU21D;8365;51.030;4.696;2023-05-10T10:08:19;15.22;118.99
16505;HTU21D;8365;51.030;4.696;2023-05-10T10:10:50;15.40;118.99
16505;HTU21D;8365;51.030;4.696;2023-05-10T10:13:21;15.58;118.99
16505;HTU21D;8365;51.030;4.696;2023-05-10T10:15:54;15.71;118.99
16505;HTU21D;8365;51.030;4.696;2023-05-10T10:18:24;15.56;118.99
16505;HTU21D;8365;51.030;4.696;2023-05-10T10:20:58;15.72;118.99
16505;HTU21D;8365;51.030;4.696;2023-05-10T10:23:29;15.61;118.99
16505;HTU21D;8365;51.030;4.696;2023-05-10T10:26:01;15.80;118.99
16505;HTU21D;8365;51.030;4.696;2023-05-10T10:28:35;15.76;118.21
16505;HTU21D;8365;51.030;4.696;2023-05-10T10:31:22;15.63;117.35
16505;HTU21D;8365;51.030;4.696;2023-05-10T10:34:08;15.54;118.60
16505;HTU21D;8365;51.030;4.696;2023-05-10T10:36:47;15.67;117.85
16505;HTU21D;8365;51.030;4.696;2023-05-10T10:39:20;15.57;118.99
16505;HTU21D;8365;51.030;4.696;2023-05-10T10:41:51;15.63;118.99
16505;HTU21D;8365;51.030;4.696;2023-05-10T10:44:23;15.44;118.99
16505;HTU21D;8365;51.030;4.696;2023-05-10T10:47:00;15.85;118.99
16505;HTU21D;8365;51.030;4.696;2023-05-10T10:49:52;15.68;118.99
16505;HTU21D;8365;51.030;4.696;2023-05-10T10:52:36;15.52;118.99
16505;HTU21D;8365;51.030;4.696;2023-05-10T10:55:18;15.71;118.99
16505;HTU21D;8365;51.030;4.696;2023-05-10T10:57:51;15.75;118.99
16505;HTU21D;8365;51.030;4.696;2023-05-10T11:00:27;15.76;118.89
16505;HTU21D;8365;51.030;4.696;2023-05-10T11:03:11;15.47;118.99
16505;HTU21D;8365;51.030;4.696;2023-05-10T11:05:50;15.29;118.99
16505;HTU21D;8365;51.030;4.696;2023-05-10T11:08:30;15.45;118.99
16505;HTU21D;8365;51.030;4.696;2023-05-10T11:16:17;15.72;118.98
16505;HTU21D;8365;51.030;4.696;2023-05-10T11:21:32;15.91;118.73
16505;HTU21D;8365;51.030;4.696;2023-05-10T11:24:13;15.74;117.43
16505;HTU21D;8365;51.030;4.696;2023-05-10T11:26:44;15.72;118.63
16505;HTU21D;8365;51.030;4.696;2023-05-10T11:29:15;15.95;117.09
16505;HTU21D;8365;51.030;4.696;2023-05-10T11:31:46;16.04;118.12
16505;HTU21D;8365;51.030;4.696;2023-05-10T11:34:27;16.21;117.77
16505;HTU21D;8365;51.030;4.696;2023-05-10T11:36:59;16.14;117.31
16505;HTU21D;8365;51.030;4.696;2023-05-10T11:39:31;16.26;117.06
16505;HTU21D;8365;51.030;4.696;2023-05-10T11:42:02;16.57;115.73
16505;HTU21D;8365;51.030;4.696;2023-05-10T11:44:33;16.94;110.11
16505;HTU21D;8365;51.030;4.696;2023-05-10T11:47:06;17.33;110.00
16505;HTU21D;8365;51.030;4.696;2023-05-10T11:49:37;17.32;111.26
16505;HTU21D;8365;51.030;4.696;2023-05-10T11:52:08;16.91;109.94
16505;HTU21D;8365;51.030;4.696;2023-05-10T11:54:50;17.20;110.87
16505;HTU21D;8365;51.030;4.696;2023-05-10T11:57:26;17.65;105.47
16505;HTU21D;8365;51.030;4.696;2023-05-10T11:59:57;17.30;106.37
16505;HTU21D;8365;51.030;4.696;2023-05-10T12:02:28;16.86;111.93
16505;HTU21D;8365;51.030;4.696;2023-05-10T12:04:59;16.62;113.72
16505;HTU21D;8365;51.030;4.696;2023-05-10T12:07:30;17.05;113.89
16505;HTU21D;8365;51.030;4.696;2023-05-10T12:10:07;17.43;112.35
16505;HTU21D;8365;51.030;4.696;2023-05-10T12:12:45;18.06;106.00
16505;HTU21D;8365;51.030;4.696;2023-05-10T12:15:22;17.89;109.55
16505;HTU21D;8365;51.030;4.696;2023-05-10T12:17:53;18.07;107.16
16505;HTU21D;8365;51.030;4.696;2023-05-10T12:20:24;18.40;104.05
16505;HTU21D;8365;51.030;4.696;2023-05-10T12:22:58;18.59;103.62
16505;HTU21D;8365;51.030;4.696;2023-05-10T12:25:34;19.18;96.53
16505;HTU21D;8365;51.030;4.696;2023-05-10T12:28:07;19.14;96.85
16505;HTU21D;8365;51.030;4.696;2023-05-10T12:30:38;19.38;96.23
16505;HTU21D;8365;51.030;4.696;2023-05-10T12:33:10;19.20;97.30
16505;HTU21D;8365;51.030;4.696;2023-05-10T12:35:48;19.20;97.26
16505;HTU21D;8365;51.030;4.696;2023-05-10T12:40:59;19.50;95.17
16505;HTU21D;8365;51.030;4.696;2023-05-10T12:43:31;19.59;94.41
16505;HTU21D;8365;51.030;4.696;2023-05-10T12:48:41;19.06;96.79
16505;HTU21D;8365;51.030;4.696;2023-05-10T12:51:14;19.98;94.96
16505;HTU21D;8365;51.030;4.696;2023-05-10T12:53:47;19.43;99.50
16505;HTU21D;8365;51.030;4.696;2023-05-10T12:56:18;19.48;94.53
16505;HTU21D;8365;51.030;4.696;2023-05-10T12:58:48;19.38;95.68
16505;HTU21D;8365;51.030;4.696;2023-05-10T13:01:19;19.32;97.58
16505;HTU21D;8365;51.030;4.696;2023-05-10T13:03:49;19.96;94.54
16505;HTU21D;8365;51.030;4.696;2023-05-10T13:06:20;19.50;94.35
16505;HTU21D;8365;51.030;4.696;2023-05-10T13:08:51;19.31;97.49
16505;HTU21D;8365;51.030;4.696;2023-05-10T13:11:21;19.25;98.61
16505;HTU21D;8365;51.030;4.696;2023-05-10T13:13:52;19.21;96.46
16505;HTU21D;8365;51.030;4.696;2023-05-10T13:16:22;19.43;98.00
16505;HTU21D;8365;51.030;4.696;2023-05-10T13:18:55;19.18;98.31
16505;HTU21D;8365;51.030;4.696;2023-05-10T13:21:26;19.18;95.85
16505;HTU21D;8365;51.030;4.696;2023-05-10T13:23:56;19.28;93.38
16505;HTU21D;8365;51.030;4.696;2023-05-10T13:26:27;19.95;92.30
16505;HTU21D;8365;51.030;4.696;2023-05-10T13:28:58;20.87;89.47
16505;HTU21D;8365;51.030;4.696;2023-05-10T13:31:30;20.77;87.19
16505;HTU21D;8365;51.030;4.696;2023-05-10T13:34:01;20.59;87.41
16505;HTU21D;8365;51.030;4.696;2023-05-10T13:36:32;20.33;88.65
16505;HTU21D;8365;51.030;4.696;2023-05-10T13:39:03;19.83;91.16
16505;HTU21D;8365;51.030;4.696;2023-05-10T13:41:35;19.74;90.82
16505;HTU21D;8365;51.030;4.696;2023-05-10T13:44:06;19.68;92.98
16505;HTU21D;8365;51.030;4.696;2023-05-10T13:46:42;19.92;88.08
16505;HTU21D;8365;51.030;4.696;2023-05-10T13:49:13;19.60;88.99
16505;HTU21D;8365;51.030;4.696;2023-05-10T13:51:44;19.74;92.54
16505;HTU21D;8365;51.030;4.696;2023-05-10T13:54:14;19.31;92.83
16505;HTU21D;8365;51.030;4.696;2023-05-10T13:56:45;18.81;95.85
16505;HTU21D;8365;51.030;4.696;2023-05-10T13:59:17;18.73;95.49
16505;HTU21D;8365;51.030;4.696;2023-05-10T14:01:50;18.69;95.25
16505;HTU21D;8365;51.030;4.696;2023-05-10T14:04:20;18.87;94.78
16505;HTU21D;8365;51.030;4.696;2023-05-10T14:06:51;18.87;93.68
16505;HTU21D;8365;51.030;4.696;2023-05-10T14:09:23;18.54;95.55
16505;HTU21D;8365;51.030;4.696;2023-05-10T14:11:53;18.28;94.76
16505;HTU21D;8365;51.030;4.696;2023-05-10T14:14:26;18.18;94.41
16505;HTU21D;8365;51.030;4.696;2023-05-10T14:16:56;17.98;96.15
16505;HTU21D;8365;51.030;4.696;2023-05-10T14:19:27;17.95;97.57
16505;HTU21D;8365;51.030;4.696;2023-05-10T14:21:58;18.48;96.82
16505;HTU21D;8365;51.030;4.696;2023-05-10T14:24:28;18.78;96.01
16505;HTU21D;8365;51.030;4.696;2023-05-10T14:26:58;18.85;94.78
16505;HTU21D;8365;51.030;4.696;2023-05-10T14:29:29;19.28;94.49
16505;HTU21D;8365;51.030;4.696;2023-05-10T14:31:59;19.44;92.52
16505;HTU21D;8365;51.030;4.696;2023-05-10T14:34:30;19.46;92.32
16505;HTU21D;8365;51.030;4.696;2023-05-10T14:37:00;19.81;90.98
16505;HTU21D;8365;51.030;4.696;2023-05-10T14:39:31;20.11;89.33
16505;HTU21D;8365;51.030;4.696;2023-05-10T14:42:03;19.79;89.99
16505;HTU21D;8365;51.030;4.696;2023-05-10T14:44:34;19.57;89.46
16505;HTU21D;8365;51.030;4.696;2023-05-10T14:47:07;19.58;90.18
16505;HTU21D;8365;51.030;4.696;2023-05-10T14:49:37;19.35;92.32
16505;HTU21D;8365;51.030;4.696;2023-05-10T14:52:08;19.18;93.15
16505;HTU21D;8365;51.030;4.696;2023-05-10T14:54:38;18.91;95.27
16505;HTU21D;8365;51.030;4.696;2023-05-10T14:57:09;18.09;97.16
16505;HTU21D;8365;51.030;4.696;2023-05-10T14:59:39;17.81;99.24
16505;HTU21D;8365;51.030;4.696;2023-05-10T15:02:10;17.98;101.02
16505;HTU21D;8365;51.030;4.696;2023-05-10T15:04:40;17.89;101.47
16505;HTU21D;8365;51.030;4.696;2023-05-10T15:07:11;17.91;100.86
16505;HTU21D;8365;51.030;4.696;2023-05-10T15:09:45;17.87;103.50
16505;HTU21D;8365;51.030;4.696;2023-05-10T15:12:15;17.80;103.61
16505;HTU21D;8365;51.030;4.696;2023-05-10T15:14:46;17.68;104.86
16505;HTU21D;8365;51.030;4.696;2023-05-10T15:17:16;17.85;104.00
16505;HTU21D;8365;51.030;4.696;2023-05-10T15:19:47;17.73;103.19
16505;HTU21D;8365;51.030;4.696;2023-05-10T15:22:19;17.58;104.69
16505;HTU21D;8365;51.030;4.696;2023-05-10T15:24:49;17.63;104.11
16505;HTU21D;8365;51.030;4.696;2023-05-10T15:27:22;17.56;106.14
16505;HTU21D;8365;51.030;4.696;2023-05-10T15:29:53;17.43;106.38
16505;HTU21D;8365;51.030;4.696;2023-05-10T15:32:23;17.59;105.81
16505;HTU21D;8365;51.030;4.696;2023-05-10T15:34:56;17.73;105.22
16505;HTU21D;8365;51.030;4.696;2023-05-10T15:37:26;17.68;106.05
16505;HTU21D;8365;51.030;4.696;2023-05-10T15:39:57;17.41;105.74
16505;HTU21D;8365;51.030;4.696;2023-05-10T15:42:33;17.40;106.27
16505;HTU21D;8365;51.030;4.696;2023-05-10T15:45:04;17.28;106.88
16505;HTU21D;8365;51.030;4.696;2023-05-10T15:47:35;17.54;105.58
16505;HTU21D;8365;51.030;4.696;2023-05-10T15:50:06;17.47;107.50
16505;HTU21D;8365;51.030;4.696;2023-05-10T15:52:37;17.49;103.01
16505;HTU21D;8365;51.030;4.696;2023-05-10T15:55:08;17.46;99.75
16505;HTU21D;8365;51.030;4.696;2023-05-10T15:57:43;17.25;99.16
16505;HTU21D;8365;51.030;4.696;2023-05-10T16:00:13;17.33;100.18
16505;HTU21D;8365;51.030;4.696;2023-05-10T16:02:46;17.15;101.32
16505;HTU21D;8365;51.030;4.696;2023-05-10T16:05:17;17.50;102.36
16505;HTU21D;8365;51.030;4.696;2023-05-10T16:07:47;17.58;103.24
16505;HTU21D;8365;51.030;4.696;2023-05-10T16:10:20;17.46;104.64
16505;HTU21D;8365;51.030;4.696;2023-05-10T16:12:52;17.40;106.51
16505;HTU21D;8365;51.030;4.696;2023-05-10T16:15:23;17.16;107.98
16505;HTU21D;8365;51.030;4.696;2023-05-10T16:17:53;17.34;108.45
16505;HTU21D;8365;51.030;4.696;2023-05-10T16:20:24;17.30;109.56